sensor_id;sensor_type;location;lat;lon;timestamp;temperature;humidity
33067;DHT22;19428;49.024;8.366;2023-05-27T00:00:59;14.80;43.70
33067;DHT22;19428;49.024;8.366;2023-05-27T00:03:31;14.80;43.20
33067;DHT22;19428;49.024;8.366;2023-05-27T00:06:17;14.90;43.00
33067;DHT22;19428;49.024;8.366;2023-05-27T00:09:11;14.70;43.70
33067;DHT22;19428;49.024;8.366;2023-05-27T00:11:36;14.70;44.10
33067;DHT22;19428;49.024;8.366;2023-05-27T00:14:02;14.70;44.00
33067;DHT22;19428;49.024;8.366;2023-05-27T00:16:28;14.70;44.10
33067;DHT22;19428;49.024;8.366;2023-05-27T00:18:53;14.60;44.60
33067;DHT22;19428;49.024;8.366;2023-05-27T00:21:19;14.50;44.60
33067;DHT22;19428;49.024;8.366;2023-05-27T00:23:46;14.60;44.60
33067;DHT22;19428;49.024;8.366;2023-05-27T00:26:15;14.60;44.90
33067;DHT22;19428;49.024;8.366;2023-05-27T00:32:02;14.40;45.80
33067;DHT22;19428;49.024;8.366;2023-05-27T00:34:31;14.40;46.40
33067;DHT22;19428;49.024;8.366;2023-05-27T00:37:17;14.40;46.40
33067;DHT22;19428;49.024;8.366;2023-05-27T00:39:52;14.40;46.70
33067;DHT22;19428;49.024;8.366;2023-05-27T01:16:15;13.80;51.30
33067;DHT22;19428;49.024;8.366;2023-05-27T01:18:51;13.60;51.60
33067;DHT22;19428;49.024;8.366;2023-05-27T01:21:35;13.60;51.70
33067;DHT22;19428;49.024;8.366;2023-05-27T01:24:11;13.60;50.80
33067;DHT22;19428;49.024;8.366;2023-05-27T01:26:51;13.60;50.30
33067;DHT22;19428;49.024;8.366;2023-05-27T01:29:22;13.60;50.70
33067;DHT22;19428;49.024;8.366;2023-05-27T01:37:25;13.50;50.90
33067;DHT22;19428;49.024;8.366;2023-05-27T01:39:52;13.40;50.60
33067;DHT22;19428;49.024;8.366;2023-05-27T01:42:19;13.50;50.80
33067;DHT22;19428;49.024;8.366;2023-05-27T01:44:46;13.50;50.70
33067;DHT22;19428;49.024;8.366;2023-05-27T01:47:12;13.40;51.30
33067;DHT22;19428;49.024;8.366;2023-05-27T01:49:39;13.30;51.50
33067;DHT22;19428;49.024;8.366;2023-05-27T01:52:06;13.30;51.60
33067;DHT22;19428;49.024;8.366;2023-05-27T01:54:34;13.30;51.10
33067;DHT22;19428;49.024;8.366;2023-05-27T01:56:59;13.20;51.30
33067;DHT22;19428;49.024;8.366;2023-05-27T01:59:26;13.20;51.30
33067;DHT22;19428;49.024;8.366;2023-05-27T02:01:51;13.20;51.20
33067;DHT22;19428;49.024;8.366;2023-05-27T02:04:17;13.10;51.00
33067;DHT22;19428;49.024;8.366;2023-05-27T02:06:43;13.10;51.60
33067;DHT22;19428;49.024;8.366;2023-05-27T02:09:08;13.10;51.30
33067;DHT22;19428;49.024;8.366;2023-05-27T02:11:36;13.10;51.30
33067;DHT22;19428;49.024;8.366;2023-05-27T02:14:02;13.10;51.30
33067;DHT22;19428;49.024;8.366;2023-05-27T02:16:28;13.00;51.00
33067;DHT22;19428;49.024;8.366;2023-05-27T02:18:55;13.00;51.00
33067;DHT22;19428;49.024;8.366;2023-05-27T02:21:21;13.00;51.50
33067;DHT22;19428;49.024;8.366;2023-05-27T02:23:47;13.00;50.50
33067;DHT22;19428;49.024;8.366;2023-05-27T02:26:13;12.90;50.80
33067;DHT22;19428;49.024;8.366;2023-05-27T02:28:38;12.90;50.70
33067;DHT22;19428;49.024;8.366;2023-05-27T02:31:05;12.90;50.80
33067;DHT22;19428;49.024;8.366;2023-05-27T02:33:31;12.80;50.80
33067;DHT22;19428;49.024;8.366;2023-05-27T02:35:57;12.80;51.00
33067;DHT22;19428;49.024;8.366;2023-05-27T02:38:22;12.80;51.40
33067;DHT22;19428;49.024;8.366;2023-05-27T02:40:48;12.80;51.50
33067;DHT22;19428;49.024;8.366;2023-05-27T02:43:14;12.70;52.10
33067;DHT22;19428;49.024;8.366;2023-05-27T02:45:39;12.70;52.50
33067;DHT22;19428;49.024;8.366;2023-05-27T02:48:05;12.60;52.90
33067;DHT22;19428;49.024;8.366;2023-05-27T02:50:41;12.60;52.70
33067;DHT22;19428;49.024;8.366;2023-05-27T02:53:21;12.60;52.60
33067;DHT22;19428;49.024;8.366;2023-05-27T02:59:22;12.50;53.30
33067;DHT22;19428;49.024;8.366;2023-05-27T03:01:54;12.40;53.60
33067;DHT22;19428;49.024;8.366;2023-05-27T03:04:23;12.40;54.00
33067;DHT22;19428;49.024;8.366;2023-05-27T03:06:49;12.30;54.10
33067;DHT22;19428;49.024;8.366;2023-05-27T03:09:15;12.40;54.10
33067;DHT22;19428;49.024;8.366;2023-05-27T03:11:50;12.30;54.80
33067;DHT22;19428;49.024;8.366;2023-05-27T03:14:15;12.20;54.40
33067;DHT22;19428;49.024;8.366;2023-05-27T03:16:44;12.20;54.60
33067;DHT22;19428;49.024;8.366;2023-05-27T03:19:16;12.20;54.40
33067;DHT22;19428;49.024;8.366;2023-05-27T03:22:23;12.20;54.60
33067;DHT22;19428;49.024;8.366;2023-05-27T03:24:51;12.20;54.70
33067;DHT22;19428;49.024;8.366;2023-05-27T03:27:17;12.10;54.80
33067;DHT22;19428;49.024;8.366;2023-05-27T03:29:48;12.10;55.10
33067;DHT22;19428;49.024;8.366;2023-05-27T03:32:14;12.10;55.10
33067;DHT22;19428;49.024;8.366;2023-05-27T03:34:40;12.10;54.90
33067;DHT22;19428;49.024;8.366;2023-05-27T03:37:32;12.00;55.30
33067;DHT22;19428;49.024;8.366;2023-05-27T03:40:16;12.00;55.70
33067;DHT22;19428;49.024;8.366;2023-05-27T03:42:45;12.00;55.40
33067;DHT22;19428;49.024;8.366;2023-05-27T03:45:11;11.90;55.80
33067;DHT22;19428;49.024;8.366;2023-05-27T03:47:42;11.90;55.70
33067;DHT22;19428;49.024;8.366;2023-05-27T03:50:09;12.00;55.30
33067;DHT22;19428;49.024;8.366;2023-05-27T03:52:39;11.90;55.50
33067;DHT22;19428;49.024;8.366;2023-05-27T03:55:05;11.90;56.20
33067;DHT22;19428;49.024;8.366;2023-05-27T03:57:37;11.90;55.30
33067;DHT22;19428;49.024;8.366;2023-05-27T04:00:05;11.90;55.50
33067;DHT22;19428;49.024;8.366;2023-05-27T04:02:39;11.90;55.30
33067;DHT22;19428;49.024;8.366;2023-05-27T04:05:08;11.90;55.30
33067;DHT22;19428;49.024;8.366;2023-05-27T04:07:34;11.90;54.90
33067;DHT22;19428;49.024;8.366;2023-05-27T04:10:02;12.00;54.80
33067;DHT22;19428;49.024;8.366;2023-05-27T04:12:38;12.00;54.90
33067;DHT22;19428;49.024;8.366;2023-05-27T04:15:11;12.00;54.60
33067;DHT22;19428;49.024;8.366;2023-05-27T04:17:43;12.00;54.20
33067;DHT22;19428;49.024;8.366;2023-05-27T04:20:10;12.00;53.50
33067;DHT22;19428;49.024;8.366;2023-05-27T04:22:47;12.10;53.60
33067;DHT22;19428;49.024;8.366;2023-05-27T04:25:23;12.20;53.20
33067;DHT22;19428;49.024;8.366;2023-05-27T04:27:49;12.20;52.90
33067;DHT22;19428;49.024;8.366;2023-05-27T04:30:20;12.30;52.40
33067;DHT22;19428;49.024;8.366;2023-05-27T04:32:54;12.40;53.50
33067;DHT22;19428;49.024;8.366;2023-05-27T04:35:23;12.40;53.20
33067;DHT22;19428;49.024;8.366;2023-05-27T04:37:49;12.40;51.60
33067;DHT22;19428;49.024;8.366;2023-05-27T04:40:23;12.50;51.10
33067;DHT22;19428;49.024;8.366;2023-05-27T04:42:49;12.60;50.50
33067;DHT22;19428;49.024;8.366;2023-05-27T04:45:17;12.60;50.70
33067;DHT22;19428;49.024;8.366;2023-05-27T04:47:42;12.50;50.20
33067;DHT22;19428;49.024;8.366;2023-05-27T04:50:10;12.50;50.50
33067;DHT22;19428;49.024;8.366;2023-05-27T04:52:36;12.70;50.00
33067;DHT22;19428;49.024;8.366;2023-05-27T04:55:08;12.70;50.10
33067;DHT22;19428;49.024;8.366;2023-05-27T04:57:35;12.80;49.10
33067;DHT22;19428;49.024;8.366;2023-05-27T05:00:04;12.60;50.40
33067;DHT22;19428;49.024;8.366;2023-05-27T05:02:47;12.80;50.00
33067;DHT22;19428;49.024;8.366;2023-05-27T05:05:16;12.90;49.00
33067;DHT22;19428;49.024;8.366;2023-05-27T05:07:44;13.10;48.90
33067;DHT22;19428;49.024;8.366;2023-05-27T05:10:15;13.00;48.80
33067;DHT22;19428;49.024;8.366;2023-05-27T05:12:41;13.20;47.40
33067;DHT22;19428;49.024;8.366;2023-05-27T05:15:07;13.40;47.50
33067;DHT22;19428;49.024;8.366;2023-05-27T05:17:33;13.20;46.60
33067;DHT22;19428;49.024;8.366;2023-05-27T05:19:59;13.40;46.30
33067;DHT22;19428;49.024;8.366;2023-05-27T05:22:25;13.30;47.40
33067;DHT22;19428;49.024;8.366;2023-05-27T05:24:52;13.40;46.70
33067;DHT22;19428;49.024;8.366;2023-05-27T05:27:18;13.50;45.10
33067;DHT22;19428;49.024;8.366;2023-05-27T05:29:43;13.70;45.50
33067;DHT22;19428;49.024;8.366;2023-05-27T05:39:23;13.90;40.90
33067;DHT22;19428;49.024;8.366;2023-05-27T06:35:40;15.70;24.70
33067;DHT22;19428;49.024;8.366;2023-05-27T07:18:23;16.50;19.60
33067;DHT22;19428;49.024;8.366;2023-05-27T07:43:02;16.70;18.60
33067;DHT22;19428;49.024;8.366;2023-05-27T07:45:28;16.80;18.90
33067;DHT22;19428;49.024;8.366;2023-05-27T07:47:54;16.70;16.90
33067;DHT22;19428;49.024;8.366;2023-05-27T07:50:19;16.70;17.80
33067;DHT22;19428;49.024;8.366;2023-05-27T07:52:45;16.80;18.90
33067;DHT22;19428;49.024;8.366;2023-05-27T07:55:20;17.10;18.20
33067;DHT22;19428;49.024;8.366;2023-05-27T08:05:35;17.10;17.70
33067;DHT22;19428;49.024;8.366;2023-05-27T08:08:10;17.20;17.00
33067;DHT22;19428;49.024;8.366;2023-05-27T08:21:52;18.10;16.20
33067;DHT22;19428;49.024;8.366;2023-05-27T08:24:21;17.90;16.10
33067;DHT22;19428;49.024;8.366;2023-05-27T08:26:47;18.00;17.50
33067;DHT22;19428;49.024;8.366;2023-05-27T08:29:25;17.90;16.30
33067;DHT22;19428;49.024;8.366;2023-05-27T08:31:55;18.00;14.90
33067;DHT22;19428;49.024;8.366;2023-05-27T08:34:23;17.60;14.70
33067;DHT22;19428;49.024;8.366;2023-05-27T08:36:49;17.50;16.40
33067;DHT22;19428;49.024;8.366;2023-05-27T08:39:20;17.90;16.40
33067;DHT22;19428;49.024;8.366;2023-05-27T08:42:09;17.80;16.00
33067;DHT22;19428;49.024;8.366;2023-05-27T08:44:42;18.10;17.30
33067;DHT22;19428;49.024;8.366;2023-05-27T08:47:28;18.30;15.90
33067;DHT22;19428;49.024;8.366;2023-05-27T08:49:56;18.40;16.30
33067;DHT22;19428;49.024;8.366;2023-05-27T08:52:22;18.30;14.50
33067;DHT22;19428;49.024;8.366;2023-05-27T08:54:50;18.10;13.90
33067;DHT22;19428;49.024;8.366;2023-05-27T08:57:17;18.20;15.50
33067;DHT22;19428;49.024;8.366;2023-05-27T08:59:44;18.70;14.10
33067;DHT22;19428;49.024;8.366;2023-05-27T09:02:12;18.40;15.00
33067;DHT22;19428;49.024;8.366;2023-05-27T09:04:39;18.50;14.90
33067;DHT22;19428;49.024;8.366;2023-05-27T09:07:05;18.60;14.20
33067;DHT22;19428;49.024;8.366;2023-05-27T09:09:31;18.80;13.00
33067;DHT22;19428;49.024;8.366;2023-05-27T09:12:01;18.70;15.60
33067;DHT22;19428;49.024;8.366;2023-05-27T09:14:28;18.70;13.70
33067;DHT22;19428;49.024;8.366;2023-05-27T09:16:54;18.70;13.70
33067;DHT22;19428;49.024;8.366;2023-05-27T09:19:22;18.90;12.70
33067;DHT22;19428;49.024;8.366;2023-05-27T09:21:52;19.20;14.90
33067;DHT22;19428;49.024;8.366;2023-05-27T09:24:29;18.90;12.70
33067;DHT22;19428;49.024;8.366;2023-05-27T09:27:23;18.80;14.30
33067;DHT22;19428;49.024;8.366;2023-05-27T09:29:48;19.20;13.20
33067;DHT22;19428;49.024;8.366;2023-05-27T09:32:26;19.60;13.60
33067;DHT22;19428;49.024;8.366;2023-05-27T09:35:02;19.30;12.40
33067;DHT22;19428;49.024;8.366;2023-05-27T09:38:07;19.70;12.00
33067;DHT22;19428;49.024;8.366;2023-05-27T09:40:35;20.00;13.00
33067;DHT22;19428;49.024;8.366;2023-05-27T09:43:02;20.40;14.80
33067;DHT22;19428;49.024;8.366;2023-05-27T09:45:28;20.10;12.50
33067;DHT22;19428;49.024;8.366;2023-05-27T09:47:53;19.60;10.80
33067;DHT22;19428;49.024;8.366;2023-05-27T09:50:20;19.60;12.10
33067;DHT22;19428;49.024;8.366;2023-05-27T09:52:47;19.90;12.70
33067;DHT22;19428;49.024;8.366;2023-05-27T09:55:16;19.90;11.60
33067;DHT22;19428;49.024;8.366;2023-05-27T09:57:44;20.10;12.10
33067;DHT22;19428;49.024;8.366;2023-05-27T10:00:11;20.20;11.40
33067;DHT22;19428;49.024;8.366;2023-05-27T10:02:40;20.20;9.90
33067;DHT22;19428;49.024;8.366;2023-05-27T10:05:11;20.40;11.60
33067;DHT22;19428;49.024;8.366;2023-05-27T10:07:38;20.20;12.00
33067;DHT22;19428;49.024;8.366;2023-05-27T10:10:11;20.30;9.60
33067;DHT22;19428;49.024;8.366;2023-05-27T10:12:39;19.80;10.90
33067;DHT22;19428;49.024;8.366;2023-05-27T10:15:05;20.30;9.90
33067;DHT22;19428;49.024;8.366;2023-05-27T10:17:53;20.20;10.20
33067;DHT22;19428;49.024;8.366;2023-05-27T10:20:33;20.40;11.60
33067;DHT22;19428;49.024;8.366;2023-05-27T10:23:12;20.50;10.50
33067;DHT22;19428;49.024;8.366;2023-05-27T10:25:40;20.80;10.90
33067;DHT22;19428;49.024;8.366;2023-05-27T10:28:07;20.60;9.50
33067;DHT22;19428;49.024;8.366;2023-05-27T10:30:46;20.70;10.60
33067;DHT22;19428;49.024;8.366;2023-05-27T10:33:12;20.50;10.10
33067;DHT22;19428;49.024;8.366;2023-05-27T10:35:42;20.60;11.40
33067;DHT22;19428;49.024;8.366;2023-05-27T10:38:18;20.70;8.70
33067;DHT22;19428;49.024;8.366;2023-05-27T10:40:47;20.80;9.10
33067;DHT22;19428;49.024;8.366;2023-05-27T10:43:17;21.10;8.50
33067;DHT22;19428;49.024;8.366;2023-05-27T10:45:42;21.00;9.00
33067;DHT22;19428;49.024;8.366;2023-05-27T10:48:16;21.10;9.70
33067;DHT22;19428;49.024;8.366;2023-05-27T10:50:49;21.20;9.00
33067;DHT22;19428;49.024;8.366;2023-05-27T10:53:20;21.50;9.70
33067;DHT22;19428;49.024;8.366;2023-05-27T10:55:49;21.50;9.50
33067;DHT22;19428;49.024;8.366;2023-05-27T10:58:19;21.30;7.80
33067;DHT22;19428;49.024;8.366;2023-05-27T11:00:48;21.10;8.70
33067;DHT22;19428;49.024;8.366;2023-05-27T11:03:21;21.50;7.00
33067;DHT22;19428;49.024;8.366;2023-05-27T11:08:25;21.10;7.10
33067;DHT22;19428;49.024;8.366;2023-05-27T11:11:00;21.60;7.90
33067;DHT22;19428;49.024;8.366;2023-05-27T11:13:30;21.60;7.80
33067;DHT22;19428;49.024;8.366;2023-05-27T11:15:56;21.50;7.50
33067;DHT22;19428;49.024;8.366;2023-05-27T11:18:21;21.90;7.20
33067;DHT22;19428;49.024;8.366;2023-05-27T11:20:47;21.50;7.00
33067;DHT22;19428;49.024;8.366;2023-05-27T11:23:13;21.60;7.60
33067;DHT22;19428;49.024;8.366;2023-05-27T11:25:44;21.60;6.10
33067;DHT22;19428;49.024;8.366;2023-05-27T11:28:15;21.70;6.40
33067;DHT22;19428;49.024;8.366;2023-05-27T11:30:44;21.70;5.50
33067;DHT22;19428;49.024;8.366;2023-05-27T11:33:09;21.80;5.30
33067;DHT22;19428;49.024;8.366;2023-05-27T11:35:35;21.60;4.70
33067;DHT22;19428;49.024;8.366;2023-05-27T11:38:01;22.10;6.20
33067;DHT22;19428;49.024;8.366;2023-05-27T11:40:36;22.60;5.00
33067;DHT22;19428;49.024;8.366;2023-05-27T11:43:04;22.50;3.00
33067;DHT22;19428;49.024;8.366;2023-05-27T11:45:35;22.60;4.40
33067;DHT22;19428;49.024;8.366;2023-05-27T11:48:02;22.40;3.10
33067;DHT22;19428;49.024;8.366;2023-05-27T11:50:28;22.80;3.90
33067;DHT22;19428;49.024;8.366;2023-05-27T11:52:55;23.00;2.40
33067;DHT22;19428;49.024;8.366;2023-05-27T11:55:22;23.30;1.70
33067;DHT22;19428;49.024;8.366;2023-05-27T11:57:48;22.80;1.00
33067;DHT22;19428;49.024;8.366;2023-05-27T12:00:14;22.80;1.20
33067;DHT22;19428;49.024;8.366;2023-05-27T12:02:41;23.70;1.50
33067;DHT22;19428;49.024;8.366;2023-05-27T12:05:08;23.20;1.00
33067;DHT22;19428;49.024;8.366;2023-05-27T12:07:34;23.30;1.00
33067;DHT22;19428;49.024;8.366;2023-05-27T12:10:01;23.40;1.00
33067;DHT22;19428;49.024;8.366;2023-05-27T12:12:26;24.20;1.00
33067;DHT22;19428;49.024;8.366;2023-05-27T12:14:52;23.20;1.00
33067;DHT22;19428;49.024;8.366;2023-05-27T12:17:18;23.70;1.00
33067;DHT22;19428;49.024;8.366;2023-05-27T12:19:43;23.70;1.00
33067;DHT22;19428;49.024;8.366;2023-05-27T12:22:09;24.70;1.00
33067;DHT22;19428;49.024;8.366;2023-05-27T12:24:34;23.90;1.00
33067;DHT22;19428;49.024;8.366;2023-05-27T12:27:00;23.90;1.00
33067;DHT22;19428;49.024;8.366;2023-05-27T12:29:27;24.10;1.00
33067;DHT22;19428;49.024;8.366;2023-05-27T12:31:53;23.50;1.00
33067;DHT22;19428;49.024;8.366;2023-05-27T12:34:19;23.50;1.00
33067;DHT22;19428;49.024;8.366;2023-05-27T12:36:44;23.70;1.00
33067;DHT22;19428;49.024;8.366;2023-05-27T12:39:10;24.50;1.00
33067;DHT22;19428;49.024;8.366;2023-05-27T12:41:37;24.00;1.00
33067;DHT22;19428;49.024;8.366;2023-05-27T12:44:03;24.00;1.00
33067;DHT22;19428;49.024;8.366;2023-05-27T12:46:31;23.90;1.00
33067;DHT22;19428;49.024;8.366;2023-05-27T12:48:58;24.70;1.00
33067;DHT22;19428;49.024;8.366;2023-05-27T12:51:24;24.90;1.00
33067;DHT22;19428;49.024;8.366;2023-05-27T12:53:50;24.80;1.00
33067;DHT22;19428;49.024;8.366;2023-05-27T12:56:15;24.70;1.00
33067;DHT22;19428;49.024;8.366;2023-05-27T12:58:41;25.10;1.00
33067;DHT22;19428;49.024;8.366;2023-05-27T13:01:06;25.70;1.00
33067;DHT22;19428;49.024;8.366;2023-05-27T13:03:32;24.50;1.00
33067;DHT22;19428;49.024;8.366;2023-05-27T13:05:58;23.70;1.00
33067;DHT22;19428;49.024;8.366;2023-05-27T13:08:24;24.00;1.00
33067;DHT22;19428;49.024;8.366;2023-05-27T13:10:49;24.20;1.00
33067;DHT22;19428;49.024;8.366;2023-05-27T13:13:15;24.70;1.00
33067;DHT22;19428;49.024;8.366;2023-05-27T13:15:41;24.60;1.00
33067;DHT22;19428;49.024;8.366;2023-05-27T13:18:07;25.30;1.00
33067;DHT22;19428;49.024;8.366;2023-05-27T13:20:34;25.50;1.00
33067;DHT22;19428;49.024;8.366;2023-05-27T13:23:00;25.60;1.00
33067;DHT22;19428;49.024;8.366;2023-05-27T13:25:27;24.80;1.00
33067;DHT22;19428;49.024;8.366;2023-05-27T13:27:54;25.00;1.00
33067;DHT22;19428;49.024;8.366;2023-05-27T13:30:20;24.90;1.00
33067;DHT22;19428;49.024;8.366;2023-05-27T13:32:46;24.60;1.00
33067;DHT22;19428;49.024;8.366;2023-05-27T13:35:11;24.90;1.00
33067;DHT22;19428;49.024;8.366;2023-05-27T13:37:38;24.80;1.00
33067;DHT22;19428;49.024;8.366;2023-05-27T13:40:05;24.40;1.00
33067;DHT22;19428;49.024;8.366;2023-05-27T13:42:31;24.90;1.00
33067;DHT22;19428;49.024;8.366;2023-05-27T13:44:57;25.10;1.00
33067;DHT22;19428;49.024;8.366;2023-05-27T13:47:23;25.10;1.00
33067;DHT22;19428;49.024;8.366;2023-05-27T13:49:49;25.30;1.00
33067;DHT22;19428;49.024;8.366;2023-05-27T13:52:15;25.70;1.00
33067;DHT22;19428;49.024;8.366;2023-05-27T13:54:40;24.80;1.00
33067;DHT22;19428;49.024;8.366;2023-05-27T13:57:06;24.30;1.00
33067;DHT22;19428;49.024;8.366;2023-05-27T13:59:32;24.90;1.00
33067;DHT22;19428;49.024;8.366;2023-05-27T14:01:58;25.30;1.00
33067;DHT22;19428;49.024;8.366;2023-05-27T14:04:23;24.80;1.00
33067;DHT22;19428;49.024;8.366;2023-05-27T14:06:49;25.10;1.00
33067;DHT22;19428;49.024;8.366;2023-05-27T14:09:15;25.40;1.00
33067;DHT22;19428;49.024;8.366;2023-05-27T14:11:40;24.90;1.00
33067;DHT22;19428;49.024;8.366;2023-05-27T14:14:06;24.90;1.00
33067;DHT22;19428;49.024;8.366;2023-05-27T14:16:31;25.30;1.00
33067;DHT22;19428;49.024;8.366;2023-05-27T14:18:57;24.90;1.00
33067;DHT22;19428;49.024;8.366;2023-05-27T14:21:23;24.50;1.00
33067;DHT22;19428;49.024;8.366;2023-05-27T14:23:48;24.80;1.00
33067;DHT22;19428;49.024;8.366;2023-05-27T14:26:14;24.90;1.00
33067;DHT22;19428;49.024;8.366;2023-05-27T14:28:41;24.80;1.00
33067;DHT22;19428;49.024;8.366;2023-05-27T14:31:06;24.70;1.00
33067;DHT22;19428;49.024;8.366;2023-05-27T14:33:32;25.00;1.00
33067;DHT22;19428;49.024;8.366;2023-05-27T14:35:59;24.80;1.00
33067;DHT22;19428;49.024;8.366;2023-05-27T14:38:24;25.10;1.00
33067;DHT22;19428;49.024;8.366;2023-05-27T14:40:50;24.90;1.00
33067;DHT22;19428;49.024;8.366;2023-05-27T14:43:16;25.20;1.00
33067;DHT22;19428;49.024;8.366;2023-05-27T14:45:41;25.30;1.00
33067;DHT22;19428;49.024;8.366;2023-05-27T14:48:07;25.00;1.00
33067;DHT22;19428;49.024;8.366;2023-05-27T14:50:33;24.90;1.00
33067;DHT22;19428;49.024;8.366;2023-05-27T14:52:59;24.90;1.00
33067;DHT22;19428;49.024;8.366;2023-05-27T14:55:25;24.70;1.00
33067;DHT22;19428;49.024;8.366;2023-05-27T14:57:50;25.40;1.00
33067;DHT22;19428;49.024;8.366;2023-05-27T15:00:16;24.80;1.00
33067;DHT22;19428;49.024;8.366;2023-05-27T15:02:42;25.30;1.00
33067;DHT22;19428;49.024;8.366;2023-05-27T15:05:08;24.90;1.00
33067;DHT22;19428;49.024;8.366;2023-05-27T15:07:35;24.80;1.00
33067;DHT22;19428;49.024;8.366;2023-05-27T15:10:02;24.90;1.00
33067;DHT22;19428;49.024;8.366;2023-05-27T15:12:44;24.80;1.00
33067;DHT22;19428;49.024;8.366;2023-05-27T15:15:13;25.70;1.00
33067;DHT22;19428;49.024;8.366;2023-05-27T15:17:41;24.90;1.00
33067;DHT22;19428;49.024;8.366;2023-05-27T15:20:10;25.00;1.00
33067;DHT22;19428;49.024;8.366;2023-05-27T15:22:36;24.60;1.00
33067;DHT22;19428;49.024;8.366;2023-05-27T15:25:02;24.80;1.00
33067;DHT22;19428;49.024;8.366;2023-05-27T15:27:28;24.90;1.00
33067;DHT22;19428;49.024;8.366;2023-05-27T15:29:53;24.90;1.00
33067;DHT22;19428;49.024;8.366;2023-05-27T15:32:19;25.10;1.00
33067;DHT22;19428;49.024;8.366;2023-05-27T15:34:44;24.50;1.00
33067;DHT22;19428;49.024;8.366;2023-05-27T15:37:10;24.70;1.00
33067;DHT22;19428;49.024;8.366;2023-05-27T15:39:39;24.80;1.00
33067;DHT22;19428;49.024;8.366;2023-05-27T15:42:04;24.90;1.00
33067;DHT22;19428;49.024;8.366;2023-05-27T15:44:32;24.90;1.00
33067;DHT22;19428;49.024;8.366;2023-05-27T15:46:58;24.80;1.00
33067;DHT22;19428;49.024;8.366;2023-05-27T15:49:23;24.90;1.00
33067;DHT22;19428;49.024;8.366;2023-05-27T15:51:49;24.80;1.00
33067;DHT22;19428;49.024;8.366;2023-05-27T15:54:15;24.70;1.00
33067;DHT22;19428;49.024;8.366;2023-05-27T15:56:41;24.80;1.00
33067;DHT22;19428;49.024;8.366;2023-05-27T15:59:07;25.00;1.00
33067;DHT22;19428;49.024;8.366;2023-05-27T16:01:34;24.90;1.00
33067;DHT22;19428;49.024;8.366;2023-05-27T16:04:01;24.80;1.00
33067;DHT22;19428;49.024;8.366;2023-05-27T16:06:27;25.00;1.00
33067;DHT22;19428;49.024;8.366;2023-05-27T16:08:52;24.80;1.00
33067;DHT22;19428;49.024;8.366;2023-05-27T16:11:19;24.70;1.00
33067;DHT22;19428;49.024;8.366;2023-05-27T16:13:46;25.40;1.00
33067;DHT22;19428;49.024;8.366;2023-05-27T16:16:11;25.20;1.00
33067;DHT22;19428;49.024;8.366;2023-05-27T16:18:37;24.90;1.00
33067;DHT22;19428;49.024;8.366;2023-05-27T16:21:02;25.00;1.00
33067;DHT22;19428;49.024;8.366;2023-05-27T16:23:28;25.30;1.00
33067;DHT22;19428;49.024;8.366;2023-05-27T16:25:54;25.10;1.00
33067;DHT22;19428;49.024;8.366;2023-05-27T16:28:20;25.00;1.00
33067;DHT22;19428;49.024;8.366;2023-05-27T16:30:47;24.60;1.00
33067;DHT22;19428;49.024;8.366;2023-05-27T16:33:12;24.50;1.00
33067;DHT22;19428;49.024;8.366;2023-05-27T16:35:38;24.50;1.00
33067;DHT22;19428;49.024;8.366;2023-05-27T16:38:04;24.70;1.00
33067;DHT22;19428;49.024;8.366;2023-05-27T16:40:30;24.60;1.00
33067;DHT22;19428;49.024;8.366;2023-05-27T16:42:55;24.70;1.00
33067;DHT22;19428;49.024;8.366;2023-05-27T16:45:21;24.40;1.00
33067;DHT22;19428;49.024;8.366;2023-05-27T16:47:47;24.50;1.00
33067;DHT22;19428;49.024;8.366;2023-05-27T16:50:12;24.30;1.00
33067;DHT22;19428;49.024;8.366;2023-05-27T16:52:38;24.40;1.00
33067;DHT22;19428;49.024;8.366;2023-05-27T16:55:05;24.40;1.00
33067;DHT22;19428;49.024;8.366;2023-05-27T16:57:32;24.30;1.00
33067;DHT22;19428;49.024;8.366;2023-05-27T16:59:58;24.20;1.00
33067;DHT22;19428;49.024;8.366;2023-05-27T17:02:23;24.20;1.00
33067;DHT22;19428;49.024;8.366;2023-05-27T17:04:49;24.20;1.00
33067;DHT22;19428;49.024;8.366;2023-05-27T17:07:15;24.20;1.00
33067;DHT22;19428;49.024;8.366;2023-05-27T17:09:41;24.40;1.00
33067;DHT22;19428;49.024;8.366;2023-05-27T17:12:06;24.20;1.00
33067;DHT22;19428;49.024;8.366;2023-05-27T17:14:35;24.30;1.00
33067;DHT22;19428;49.024;8.366;2023-05-27T17:17:00;24.40;1.00
33067;DHT22;19428;49.024;8.366;2023-05-27T17:19:27;24.40;1.00
33067;DHT22;19428;49.024;8.366;2023-05-27T17:21:52;24.20;1.00
33067;DHT22;19428;49.024;8.366;2023-05-27T17:24:18;24.20;1.00
33067;DHT22;19428;49.024;8.366;2023-05-27T17:26:48;24.40;1.00
33067;DHT22;19428;49.024;8.366;2023-05-27T17:29:13;24.20;1.00
33067;DHT22;19428;49.024;8.366;2023-05-27T17:31:39;24.10;1.00
33067;DHT22;19428;49.024;8.366;2023-05-27T17:34:05;24.10;1.00
33067;DHT22;19428;49.024;8.366;2023-05-27T17:36:31;24.10;1.00
33067;DHT22;19428;49.024;8.366;2023-05-27T17:38:57;23.80;1.00
33067;DHT22;19428;49.024;8.366;2023-05-27T17:41:23;23.80;1.00
33067;DHT22;19428;49.024;8.366;2023-05-27T17:43:48;23.70;1.00
33067;DHT22;19428;49.024;8.366;2023-05-27T17:46:14;23.70;1.00
33067;DHT22;19428;49.024;8.366;2023-05-27T17:48:41;23.70;1.00
33067;DHT22;19428;49.024;8.366;2023-05-27T17:51:07;23.60;1.00
33067;DHT22;19428;49.024;8.366;2023-05-27T17:53:32;23.60;1.00
33067;DHT22;19428;49.024;8.366;2023-05-27T17:56:03;23.50;1.00
33067;DHT22;19428;49.024;8.366;2023-05-27T17:58:29;23.50;1.00
33067;DHT22;19428;49.024;8.366;2023-05-27T18:00:54;23.50;1.00
33067;DHT22;19428;49.024;8.366;2023-05-27T18:03:20;23.40;1.00
33067;DHT22;19428;49.024;8.366;2023-05-27T18:05:45;23.40;1.00
33067;DHT22;19428;49.024;8.366;2023-05-27T18:08:11;23.40;1.00
33067;DHT22;19428;49.024;8.366;2023-05-27T18:10:37;23.40;1.00
33067;DHT22;19428;49.024;8.366;2023-05-27T18:13:03;23.40;1.00
33067;DHT22;19428;49.024;8.366;2023-05-27T18:15:28;23.20;1.00
33067;DHT22;19428;49.024;8.366;2023-05-27T18:17:54;23.10;1.00
33067;DHT22;19428;49.024;8.366;2023-05-27T18:20:20;22.90;1.00
33067;DHT22;19428;49.024;8.366;2023-05-27T18:22:46;22.90;1.00
33067;DHT22;19428;49.024;8.366;2023-05-27T18:25:12;22.80;1.00
33067;DHT22;19428;49.024;8.366;2023-05-27T18:27:38;22.80;1.00
33067;DHT22;19428;49.024;8.366;2023-05-27T18:30:07;22.70;1.00
33067;DHT22;19428;49.024;8.366;2023-05-27T18:32:49;22.50;1.00
33067;DHT22;19428;49.024;8.366;2023-05-27T18:35:15;22.30;1.00
33067;DHT22;19428;49.024;8.366;2023-05-27T18:37:41;22.30;1.00
33067;DHT22;19428;49.024;8.366;2023-05-27T18:40:08;22.20;1.00
33067;DHT22;19428;49.024;8.366;2023-05-27T18:42:34;22.00;1.00
33067;DHT22;19428;49.024;8.366;2023-05-27T18:45:00;22.00;1.00
33067;DHT22;19428;49.024;8.366;2023-05-27T18:47:25;21.90;1.00
33067;DHT22;19428;49.024;8.366;2023-05-27T18:49:51;21.90;1.00
33067;DHT22;19428;49.024;8.366;2023-05-27T18:52:16;21.80;1.00
33067;DHT22;19428;49.024;8.366;2023-05-27T18:54:44;21.70;1.00
33067;DHT22;19428;49.024;8.366;2023-05-27T18:57:10;21.60;1.00